Time,TemperatureF,DewpointF,PressureIn,WindDirection,WindDirectionDegrees,WindSpeedMPH,WindSpeedGustMPH,Humidity,HourlyPrecipIn,Conditions,Clouds,dailyrainin,SoftwareType,DateUTC
2013-07-09 00:01:00,75.0,73.0,29.96,SSW,209,0.0,2.0,93,0.00,,,0.08,,2013-07-09 04:01:00,
2013-07-09 00:11:00,74.0,72.0,29.96,SW,231,0.0,2.0,93,0.00,,,0.08,,2013-07-09 04:11:00,
2013-07-09 00:22:00,74.0,72.0,29.96,SW,230,0.0,2.0,93,0.00,,,0.08,,2013-07-09 04:22:00,
2013-07-09 00:42:00,75.0,73.0,29.96,SSW,211,0.0,2.0,93,0.00,,,0.08,,2013-07-09 04:42:00,
2013-07-09 00:53:00,75.0,73.0,29.96,SSW,211,0.0,2.0,93,0.00,,,0.08,,2013-07-09 04:53:00,
2013-07-09 01:02:00,75.0,73.0,29.96,SW,225,1.0,4.0,93,0.00,,,0.08,,2013-07-09 05:02:00,
2013-07-09 01:11:00,75.0,73.0,29.96,SW,225,1.0,4.0,93,0.00,,,0.08,,2013-07-09 05:11:00,
2013-07-09 01:22:00,75.0,73.0,29.96,SW,224,0.0,4.0,93,0.00,,,0.08,,2013-07-09 05:22:00,
2013-07-09 01:33:00,75.0,73.0,29.96,SW,224,0.0,2.0,93,0.00,,,0.08,,2013-07-09 05:33:00,
2013-07-09 01:42:00,74.0,72.0,29.95,SW,229,1.0,4.0,93,0.00,,,0.08,,2013-07-09 05:42:00,
2013-07-09 01:52:00,74.0,72.0,29.95,SW,229,1.0,4.0,93,0.00,,,0.08,,2013-07-09 05:52:00,
2013-07-09 02:01:00,74.0,72.0,29.94,SW,235,1.0,3.0,94,0.00,,,0.08,,2013-07-09 06:01:00,
2013-07-09 02:11:00,74.0,72.0,29.94,WSW,256,2.0,5.0,94,0.00,,,0.08,,2013-07-09 06:11:00,
2013-07-09 02:22:00,74.0,72.0,29.94,WSW,256,2.0,5.0,94,0.00,,,0.08,,2013-07-09 06:22:00,
2013-07-09 02:34:00,74.0,72.0,29.94,WSW,254,2.0,5.0,93,0.00,,,0.08,,2013-07-09 06:34:00,
2013-07-09 02:43:00,74.0,72.0,29.94,WSW,256,2.0,6.0,93,0.00,,,0.08,,2013-07-09 06:43:00,
2013-07-09 02:53:00,74.0,72.0,29.94,WSW,256,2.0,6.0,93,0.00,,,0.08,,2013-07-09 06:53:00,
2013-07-09 03:02:00,74.0,72.0,29.94,WSW,250,3.0,5.0,93,0.00,,,0.08,,2013-07-09 07:02:00,
2013-07-09 03:12:00,74.0,72.0,29.95,WSW,250,1.0,7.0,93,0.00,,,0.08,,2013-07-09 07:12:00,
2013-07-09 03:22:00,74.0,72.0,29.95,WSW,250,1.0,7.0,93,0.00,,,0.08,,2013-07-09 07:22:00,
2013-07-09 03:34:00,74.0,72.0,29.95,WSW,249,1.0,4.0,93,0.00,,,0.08,,2013-07-09 07:34:00,
2013-07-09 03:43:00,74.0,72.0,29.95,WSW,254,1.0,4.0,94,0.00,,,0.08,,2013-07-09 07:43:00,
2013-07-09 03:53:00,74.0,72.0,29.95,WSW,254,1.0,4.0,94,0.00,,,0.08,,2013-07-09 07:53:00,
2013-07-09 04:01:00,74.0,72.0,29.95,SW,229,1.0,6.0,94,0.00,,,0.08,,2013-07-09 08:01:00,
2013-07-09 04:22:00,74.0,72.0,29.95,WSW,240,2.0,5.0,94,0.00,,,0.08,,2013-07-09 08:22:00,
2013-07-09 04:33:00,74.0,72.0,29.95,WSW,249,3.0,6.0,93,0.00,,,0.08,,2013-07-09 08:33:00,
2013-07-09 04:43:00,75.0,72.0,29.95,WSW,246,3.0,9.0,91,0.00,,,0.08,,2013-07-09 08:43:00,
2013-07-09 04:52:00,75.0,72.0,29.95,WSW,246,3.0,9.0,91,0.00,,,0.08,,2013-07-09 08:52:00,
2013-07-09 05:02:00,75.0,73.0,29.94,West,263,4.0,9.0,92,0.00,,,0.08,,2013-07-09 09:02:00,
2013-07-09 05:12:00,75.0,73.0,29.95,WSW,249,3.0,7.0,92,0.00,,,0.08,,2013-07-09 09:12:00,
2013-07-09 05:22:00,75.0,73.0,29.95,WSW,249,3.0,7.0,92,0.00,,,0.08,,2013-07-09 09:22:00,
2013-07-09 05:34:00,74.0,72.0,29.95,SW,236,3.0,7.0,92,0.00,,,0.08,,2013-07-09 09:34:00,
2013-07-09 05:42:00,74.0,72.0,29.95,West,266,2.0,5.0,92,0.00,,,0.08,,2013-07-09 09:42:00,
2013-07-09 05:53:00,74.0,72.0,29.95,West,266,2.0,5.0,92,0.00,,,0.08,,2013-07-09 09:53:00,
2013-07-09 06:11:00,74.0,72.0,29.95,WSW,243,2.0,6.0,93,0.00,,,0.08,,2013-07-09 10:11:00,
2013-07-09 06:22:00,74.0,72.0,29.95,SW,234,3.0,5.0,93,0.00,,,0.08,,2013-07-09 10:22:00,
2013-07-09 06:33:00,74.0,72.0,29.96,WSW,245,2.0,7.0,93,0.00,,,0.08,,2013-07-09 10:33:00,
2013-07-09 06:42:00,74.0,72.0,29.96,WSW,242,3.0,8.0,93,0.00,,,0.08,,2013-07-09 10:42:00,
2013-07-09 06:52:00,74.0,72.0,29.96,WSW,242,3.0,8.0,93,0.00,,,0.08,,2013-07-09 10:52:00,
2013-07-09 07:22:00,74.0,72.0,29.96,WSW,242,3.0,7.0,93,0.00,,,0.08,,2013-07-09 11:22:00,
2013-07-09 07:34:00,74.0,72.0,29.96,WSW,251,1.0,5.0,93,0.00,,,0.08,,2013-07-09 11:34:00,
2013-07-09 07:53:00,74.0,72.0,29.96,West,263,0.0,4.0,93,0.00,,,0.08,,2013-07-09 11:53:00,
2013-07-09 08:02:00,75.0,73.0,29.96,WSW,246,0.0,4.0,93,0.00,,,0.08,,2013-07-09 12:02:00,
2013-07-09 08:22:00,76.0,74.0,29.96,WSW,246,2.0,6.0,92,0.00,,,0.08,,2013-07-09 12:22:00,
2013-07-09 08:33:00,76.0,73.0,29.97,WSW,241,2.0,6.0,91,0.00,,,0.08,,2013-07-09 12:33:00,
2013-07-09 08:52:00,76.0,73.0,29.96,West,271,2.0,7.0,90,0.00,,,0.08,,2013-07-09 12:52:00,
2013-07-09 09:22:00,78.0,74.0,29.97,SW,224,3.0,8.0,89,0.00,,,0.08,,2013-07-09 13:22:00,
2013-07-09 09:33:00,78.0,74.0,29.97,West,264,5.0,10.0,88,0.00,,,0.08,,2013-07-09 13:33:00,
2013-07-09 09:43:00,78.0,74.0,29.97,West,265,4.0,10.0,89,0.00,,,0.08,,2013-07-09 13:43:00,
2013-07-09 09:53:00,78.0,74.0,29.97,West,265,4.0,10.0,89,0.00,,,0.08,,2013-07-09 13:53:00,
2013-07-09 10:11:00,79.0,75.0,29.97,West,278,3.0,9.0,89,0.00,,,0.08,,2013-07-09 14:11:00,
2013-07-09 10:22:00,79.0,75.0,29.96,West,277,6.0,11.0,88,0.00,,,0.08,,2013-07-09 14:22:00,
2013-07-09 10:34:00,80.0,76.0,29.96,West,278,4.0,9.0,88,0.00,,,0.08,,2013-07-09 14:34:00,
2013-07-09 10:43:00,81.0,77.0,29.96,West,276,6.0,9.0,87,0.00,,,0.08,,2013-07-09 14:43:00,
2013-07-09 10:53:00,81.0,77.0,29.96,West,276,6.0,9.0,87,0.00,,,0.08,,2013-07-09 14:53:00,
2013-07-09 11:12:00,81.0,76.0,29.96,West,279,4.0,7.0,85,0.00,,,0.08,,2013-07-09 15:12:00,
2013-07-09 11:22:00,82.0,77.0,29.96,WNW,285,3.0,8.0,84,0.00,,,0.08,,2013-07-09 15:22:00,
2013-07-09 11:43:00,82.0,76.0,29.96,West,273,6.0,10.0,83,0.00,,,0.08,,2013-07-09 15:43:00,
2013-07-09 11:52:00,83.0,77.0,29.95,West,265,4.0,9.0,82,0.00,,,0.08,,2013-07-09 15:52:00,
2013-07-09 12:11:00,84.0,76.0,29.95,SW,227,2.0,8.0,78,0.00,,,0.08,,2013-07-09 16:11:00,
2013-07-09 12:34:00,84.0,77.0,29.95,West,278,5.0,8.0,80,0.00,,,0.08,,2013-07-09 16:34:00,
2013-07-09 12:43:00,84.0,77.0,29.95,West,269,5.0,11.0,79,0.00,,,0.08,,2013-07-09 16:43:00,
2013-07-09 12:53:00,85.0,77.0,29.95,West,260,3.0,10.0,78,0.00,,,0.08,,2013-07-09 16:53:00,
2013-07-09 13:02:00,85.0,77.0,29.95,West,260,3.0,10.0,78,0.00,,,0.08,,2013-07-09 17:02:00,
2013-07-09 13:11:00,86.0,78.0,29.95,West,263,4.0,7.0,77,0.00,,,0.08,,2013-07-09 17:11:00,
2013-07-09 13:35:00,85.0,77.0,29.94,WSW,247,3.0,8.0,78,0.00,,,0.08,,2013-07-09 17:35:00,
2013-07-09 13:45:00,85.0,78.0,29.94,West,267,3.0,11.0,79,0.00,,,0.08,,2013-07-09 17:45:00,
2013-07-09 13:53:00,86.0,78.0,29.93,WSW,250,5.0,10.0,77,0.00,,,0.08,,2013-07-09 17:53:00,
2013-07-09 14:02:00,86.0,78.0,29.93,WSW,250,5.0,10.0,77,0.00,,,0.08,,2013-07-09 18:02:00,
2013-07-09 14:11:00,83.0,76.0,29.93,West,269,5.0,10.0,79,0.00,,,0.08,,2013-07-09 18:11:00,
2013-07-09 14:22:00,83.0,76.0,29.93,SW,235,2.0,8.0,80,0.00,,,0.08,,2013-07-09 18:22:00,
2013-07-09 14:32:00,83.0,76.0,29.93,SW,235,2.0,8.0,80,0.00,,,0.08,,2013-07-09 18:32:00,
2013-07-09 14:43:00,86.0,78.0,29.91,SSW,213,7.0,13.0,76,0.00,,,0.08,,2013-07-09 18:43:00,
2013-07-09 14:52:00,87.0,78.0,29.92,West,269,6.0,13.0,74,0.00,,,0.08,,2013-07-09 18:52:00,
2013-07-09 15:01:00,87.0,78.0,29.92,West,269,6.0,13.0,74,0.00,,,0.08,,2013-07-09 19:01:00,
2013-07-09 15:11:00,87.0,77.0,29.91,West,273,3.0,13.0,72,0.00,,,0.08,,2013-07-09 19:11:00,
2013-07-09 15:42:00,86.0,77.0,29.91,West,265,6.0,11.0,74,0.00,,,0.08,,2013-07-09 19:42:00,
2013-07-09 15:52:00,85.0,75.0,29.91,WSW,257,5.0,11.0,73,0.00,,,0.08,,2013-07-09 19:52:00,
2013-07-09 16:02:00,85.0,75.0,29.91,WSW,257,5.0,11.0,73,0.00,,,0.08,,2013-07-09 20:02:00,
2013-07-09 16:11:00,84.0,75.0,29.90,SW,231,4.0,11.0,75,0.00,,,0.08,,2013-07-09 20:11:00,
2013-07-09 16:32:00,84.0,76.0,29.91,WSW,257,2.0,7.0,77,0.00,,,0.08,,2013-07-09 20:32:00,
2013-07-09 16:43:00,83.0,75.0,29.91,WSW,251,3.0,7.0,78,0.00,,,0.08,,2013-07-09 20:43:00,
2013-07-09 16:52:00,82.0,74.0,29.90,SW,226,4.0,11.0,78,0.00,,,0.08,,2013-07-09 20:52:00,
2013-07-09 17:01:00,82.0,74.0,29.90,SW,226,4.0,11.0,78,0.00,,,0.08,,2013-07-09 21:01:00,
2013-07-09 17:11:00,82.0,74.0,29.91,WSW,252,6.0,12.0,77,0.00,,,0.08,,2013-07-09 21:11:00,
2013-07-09 17:22:00,80.0,74.0,29.92,West,279,4.0,11.0,81,0.00,,,0.08,,2013-07-09 21:22:00,
2013-07-09 17:32:00,80.0,74.0,29.92,West,279,4.0,11.0,81,0.00,,,0.08,,2013-07-09 21:32:00,
2013-07-09 17:42:00,79.0,74.0,29.92,WNW,286,3.0,7.0,85,0.00,,,0.08,,2013-07-09 21:42:00,
2013-07-09 17:52:00,79.0,75.0,29.92,West,275,1.0,3.0,87,0.00,,,0.08,,2013-07-09 21:52:00,
2013-07-09 18:01:00,79.0,75.0,29.92,West,275,1.0,3.0,87,0.00,,,0.08,,2013-07-09 22:01:00,
2013-07-09 18:11:00,79.0,75.0,29.92,NNE,33,2.0,4.0,87,0.00,,,0.08,,2013-07-09 22:11:00,
2013-07-09 18:22:00,78.0,74.0,29.91,ENE,59,2.0,4.0,87,0.00,,,0.08,,2013-07-09 22:22:00,
2013-07-09 18:33:00,78.0,74.0,29.91,ENE,59,2.0,4.0,87,0.00,,,0.08,,2013-07-09 22:33:00,
2013-07-09 18:42:00,77.0,73.0,29.91,NNE,28,1.0,2.0,88,0.00,,,0.08,,2013-07-09 22:42:00,
2013-07-09 18:53:00,78.0,74.0,29.89,NNE,31,0.0,2.0,88,0.00,,,0.08,,2013-07-09 22:53:00,
2013-07-09 19:02:00,78.0,74.0,29.89,NNE,31,0.0,2.0,88,0.00,,,0.08,,2013-07-09 23:02:00,
2013-07-09 19:12:00,78.0,74.0,29.88,NNE,31,0.0,1.0,87,0.00,,,0.08,,2013-07-09 23:12:00,
2013-07-09 19:22:00,79.0,75.0,29.88,NNE,31,0.0,1.0,87,0.00,,,0.00,,2013-07-09 23:22:00,
2013-07-09 19:33:00,80.0,75.0,29.88,NNE,31,0.0,2.0,86,0.00,,,0.00,,2013-07-09 23:33:00,
2013-07-09 19:43:00,80.0,75.0,29.88,NNE,31,0.0,2.0,86,0.00,,,0.00,,2013-07-09 23:43:00,
2013-07-09 19:53:00,80.0,75.0,29.88,NNE,31,0.0,1.0,85,0.00,,,0.00,,2013-07-09 23:53:00,
2013-07-09 20:01:00,81.0,76.0,29.88,South,190,1.0,3.0,84,0.00,,,0.00,,2013-07-10 00:01:00,
2013-07-09 20:11:00,81.0,76.0,29.88,South,190,1.0,3.0,84,0.00,,,0.00,,2013-07-10 00:11:00,
2013-07-09 20:22:00,81.0,75.0,29.88,SSW,196,0.0,3.0,82,0.00,,,0.00,,2013-07-10 00:22:00,
2013-07-09 20:33:00,81.0,75.0,29.87,SSW,200,2.0,6.0,83,0.00,,,0.00,,2013-07-10 00:33:00,
2013-07-09 20:42:00,81.0,75.0,29.87,SSW,200,2.0,6.0,83,0.00,,,0.00,,2013-07-10 00:42:00,
2013-07-09 20:52:00,81.0,76.0,29.87,SSW,197,2.0,4.0,84,0.00,,,0.00,,2013-07-10 00:52:00,
2013-07-09 21:01:00,80.0,75.0,29.87,SSW,199,0.0,4.0,85,0.00,,,0.00,,2013-07-10 01:01:00,
2013-07-09 21:11:00,80.0,75.0,29.87,SSW,199,0.0,4.0,85,0.00,,,0.00,,2013-07-10 01:11:00,
2013-07-09 21:22:00,80.0,75.0,29.87,SSW,201,1.0,4.0,86,0.00,,,0.00,,2013-07-10 01:22:00,
2013-07-09 21:33:00,80.0,75.0,29.87,SSW,201,1.0,4.0,86,0.00,,,0.00,,2013-07-10 01:33:00,
2013-07-09 21:43:00,79.0,75.0,29.87,SSW,201,1.0,4.0,87,0.00,,,0.00,,2013-07-10 01:43:00,
2013-07-09 21:53:00,79.0,75.0,29.88,SSW,201,0.0,2.0,88,0.00,,,0.00,,2013-07-10 01:53:00,
2013-07-09 22:11:00,79.0,75.0,29.88,SSW,201,0.0,1.0,89,0.00,,,0.00,,2013-07-10 02:11:00,
2013-07-09 22:22:00,78.0,75.0,29.88,SSW,201,0.0,1.0,90,0.00,,,0.00,,2013-07-10 02:22:00,
2013-07-09 22:43:00,78.0,75.0,29.88,SSW,201,1.0,3.0,90,0.00,,,0.00,,2013-07-10 02:43:00,
2013-07-09 23:12:00,78.0,75.0,29.88,SSW,203,1.0,4.0,90,0.00,,,0.00,,2013-07-10 03:12:00,
2013-07-09 23:22:00,79.0,75.0,29.88,SSW,207,2.0,5.0,89,0.00,,,0.00,,2013-07-10 03:22:00,
2013-07-09 23:43:00,79.0,75.0,29.88,SSW,210,3.0,7.0,89,0.00,,,0.00,,2013-07-10 03:43:00,
2013-07-09 23:52:00,78.0,74.0,29.88,SSW,198,1.0,5.0,89,0.00,,,0.00,,2013-07-10 03:52:00,